Aérodrome :
LOGIN :

S'inscrire | Disclaimer

   EN    FR    IT 

 










Légende :    VFR   VFR Marginal   IFR   IFR Intensif   IFR Très Intensif
Visi : 
Plafond : 
>= 8 km
>= 3000ft
5 à 8 km
1000 à 3000 ft
1500m à 5 km
500 à 1000 ft
800 à 1500m
200 à 500 ft
< 800m
< 200 ft
Symboles :   Orages  Brouillard  Fortes neiges  Fortes précipitations  Vent > 20 kt
SIGMETs :   Divers  Orages  Givrage  Turbulence  Onde Orograph.  Cendres Volcan.







- Altitude de l'aérodrome : 405 ft
- Code IATA : ODH


EGVO - RAF Odiham

DERNIER METAR :
  • 171313Z 11002KT 9999 FEW003 OVC015 14/13 Q1019 WHT TEMPO 4000 -RADZ SCT004 BKN010 YLO2

METARs EXPIRÉS :
  • 171250Z 12002KT 7000 -DZ FEW003 BKN012 13/13 Q1019 GRN TEMPO 4000 -RADZ BKN004 YLO2
  • 171150Z 03002KT 2500 -DZ FEW003 SCT004 BKN012 13/13 Q1019 YLO2 TEMPO 6000 -RA BKN006 YLO1
  • 171050Z 21003KT 3500 -DZ BKN003 OVC010 14/13 Q1019 YLO2 TEMPO 4000 GRN

TAF AMD TAF EGVO
Valide du 17 à 13h jusqu'au 18 à 00h UTC


171322Z 1713/1724 VRB03KT 9999 BKN015
TEMPO 1713/1714 2500 RADZ SCT004
TEMPO 1714/1719 4000 -RADZ BKN008
BECMG 1719/1722 BKN040
Pas de NOTAMs connus pour ce terrain.



MET'MAP, la Météo Aéronautique d'un coup d'oeil ! - Copyright ORBIFLY Décembre 2007 - Disclaimer

ORBIFLY MET'MAP TEAM :

Programmation & Développement : Alexandra Zaïnal
Conception & Développement : Baudouin d'Aumeries
Co-Programmation & Développement : Marc-Olivier Méhu
Soutien technique & logistique : Manuel Goepfert

Contact : metmap@orbifly.com




SOURCES & CREDITS :

   NOAA